sensor_id;sensor_type;location;lat;lon;timestamp;P1;durP1;ratioP1;P2;durP2;ratioP2
33188;SDS011;52601;53.070;10.600;2023-07-13T00:01:19;4.67;;;2.57;;
33188;SDS011;52601;53.070;10.600;2023-07-13T00:04:06;4.45;;;2.80;;
33188;SDS011;52601;53.070;10.600;2023-07-13T00:06:52;3.80;;;2.65;;
33188;SDS011;52601;53.070;10.600;2023-07-13T00:09:38;3.97;;;2.97;;
33188;SDS011;52601;53.070;10.600;2023-07-13T00:12:31;5.50;;;2.80;;
33188;SDS011;52601;53.070;10.600;2023-07-13T00:15:27;6.75;;;3.28;;
33188;SDS011;52601;53.070;10.600;2023-07-13T00:18:15;5.18;;;3.00;;
33188;SDS011;52601;53.070;10.600;2023-07-13T00:21:01;4.57;;;3.03;;
33188;SDS011;52601;53.070;10.600;2023-07-13T00:23:50;3.80;;;2.85;;
33188;SDS011;52601;53.070;10.600;2023-07-13T00:26:35;4.50;;;3.17;;
33188;SDS011;52601;53.070;10.600;2023-07-13T00:29:21;4.10;;;3.22;;
33188;SDS011;52601;53.070;10.600;2023-07-13T00:32:07;5.63;;;2.95;;
33188;SDS011;52601;53.070;10.600;2023-07-13T00:34:54;4.88;;;2.92;;
33188;SDS011;52601;53.070;10.600;2023-07-13T00:37:40;4.85;;;2.97;;
33188;SDS011;52601;53.070;10.600;2023-07-13T00:40:25;4.20;;;2.92;;
33188;SDS011;52601;53.070;10.600;2023-07-13T00:43:13;4.38;;;2.85;;
33188;SDS011;52601;53.070;10.600;2023-07-13T00:48:59;5.78;;;3.30;;
33188;SDS011;52601;53.070;10.600;2023-07-13T00:51:51;4.70;;;3.53;;
33188;SDS011;52601;53.070;10.600;2023-07-13T00:54:39;5.65;;;3.80;;
33188;SDS011;52601;53.070;10.600;2023-07-13T00:57:29;5.83;;;3.70;;
33188;SDS011;52601;53.070;10.600;2023-07-13T01:00:15;7.03;;;3.92;;
33188;SDS011;52601;53.070;10.600;2023-07-13T01:03:03;6.30;;;3.88;;
33188;SDS011;52601;53.070;10.600;2023-07-13T01:05:50;7.18;;;4.00;;
33188;SDS011;52601;53.070;10.600;2023-07-13T01:08:36;5.88;;;4.10;;
33188;SDS011;52601;53.070;10.600;2023-07-13T01:11:22;5.20;;;4.03;;
33188;SDS011;52601;53.070;10.600;2023-07-13T01:14:08;8.60;;;4.20;;
33188;SDS011;52601;53.070;10.600;2023-07-13T01:16:54;6.80;;;4.07;;
33188;SDS011;52601;53.070;10.600;2023-07-13T01:19:44;8.77;;;4.27;;
33188;SDS011;52601;53.070;10.600;2023-07-13T01:22:30;6.38;;;3.95;;
33188;SDS011;52601;53.070;10.600;2023-07-13T01:25:18;5.90;;;4.07;;
33188;SDS011;52601;53.070;10.600;2023-07-13T01:28:05;9.52;;;4.60;;
33188;SDS011;52601;53.070;10.600;2023-07-13T01:30:51;6.82;;;4.00;;
33188;SDS011;52601;53.070;10.600;2023-07-13T01:33:37;6.70;;;3.90;;
33188;SDS011;52601;53.070;10.600;2023-07-13T01:36:24;10.20;;;3.90;;
33188;SDS011;52601;53.070;10.600;2023-07-13T01:39:10;6.68;;;3.75;;
33188;SDS011;52601;53.070;10.600;2023-07-13T01:41:55;6.57;;;3.80;;
33188;SDS011;52601;53.070;10.600;2023-07-13T01:44:41;4.77;;;3.57;;
33188;SDS011;52601;53.070;10.600;2023-07-13T01:47:26;5.00;;;3.45;;
33188;SDS011;52601;53.070;10.600;2023-07-13T01:50:13;4.78;;;3.70;;
33188;SDS011;52601;53.070;10.600;2023-07-13T01:52:59;6.07;;;3.60;;
33188;SDS011;52601;53.070;10.600;2023-07-13T01:55:44;5.93;;;3.63;;
33188;SDS011;52601;53.070;10.600;2023-07-13T01:58:30;6.43;;;3.55;;
33188;SDS011;52601;53.070;10.600;2023-07-13T02:01:15;6.60;;;3.40;;
33188;SDS011;52601;53.070;10.600;2023-07-13T02:04:02;7.13;;;3.63;;
33188;SDS011;52601;53.070;10.600;2023-07-13T02:06:47;5.25;;;3.25;;
33188;SDS011;52601;53.070;10.600;2023-07-13T02:09:33;4.88;;;2.97;;
33188;SDS011;52601;53.070;10.600;2023-07-13T02:12:19;4.35;;;2.85;;
33188;SDS011;52601;53.070;10.600;2023-07-13T02:15:05;4.65;;;2.60;;
33188;SDS011;52601;53.070;10.600;2023-07-13T02:17:51;3.47;;;2.38;;
33188;SDS011;52601;53.070;10.600;2023-07-13T02:20:37;3.25;;;2.42;;
33188;SDS011;52601;53.070;10.600;2023-07-13T02:23:22;4.63;;;2.30;;
33188;SDS011;52601;53.070;10.600;2023-07-13T02:26:08;4.90;;;2.27;;
33188;SDS011;52601;53.070;10.600;2023-07-13T02:28:54;6.13;;;2.72;;
33188;SDS011;52601;53.070;10.600;2023-07-13T02:31:39;5.47;;;2.50;;
33188;SDS011;52601;53.070;10.600;2023-07-13T02:34:25;5.45;;;2.70;;
33188;SDS011;52601;53.070;10.600;2023-07-13T02:37:11;3.97;;;2.30;;
33188;SDS011;52601;53.070;10.600;2023-07-13T02:39:57;3.88;;;2.33;;
33188;SDS011;52601;53.070;10.600;2023-07-13T02:42:42;4.72;;;2.70;;
33188;SDS011;52601;53.070;10.600;2023-07-13T02:45:28;4.95;;;3.00;;
33188;SDS011;52601;53.070;10.600;2023-07-13T02:48:14;3.90;;;2.90;;
33188;SDS011;52601;53.070;10.600;2023-07-13T02:50:59;4.45;;;2.92;;
33188;SDS011;52601;53.070;10.600;2023-07-13T02:53:45;5.32;;;2.72;;
33188;SDS011;52601;53.070;10.600;2023-07-13T02:56:31;4.63;;;2.67;;
33188;SDS011;52601;53.070;10.600;2023-07-13T02:59:17;5.22;;;2.50;;
33188;SDS011;52601;53.070;10.600;2023-07-13T03:02:03;4.00;;;2.40;;
33188;SDS011;52601;53.070;10.600;2023-07-13T03:04:48;4.88;;;2.50;;
33188;SDS011;52601;53.070;10.600;2023-07-13T03:07:34;3.80;;;2.35;;
33188;SDS011;52601;53.070;10.600;2023-07-13T03:10:20;4.50;;;2.20;;
33188;SDS011;52601;53.070;10.600;2023-07-13T03:13:06;4.30;;;2.15;;
33188;SDS011;52601;53.070;10.600;2023-07-13T03:15:51;3.28;;;2.22;;
33188;SDS011;52601;53.070;10.600;2023-07-13T03:18:37;5.03;;;2.50;;
33188;SDS011;52601;53.070;10.600;2023-07-13T03:21:23;4.70;;;2.38;;
33188;SDS011;52601;53.070;10.600;2023-07-13T03:24:08;3.80;;;2.50;;
33188;SDS011;52601;53.070;10.600;2023-07-13T03:26:54;5.63;;;2.80;;
33188;SDS011;52601;53.070;10.600;2023-07-13T03:29:40;5.70;;;3.30;;
33188;SDS011;52601;53.070;10.600;2023-07-13T03:32:26;7.10;;;3.30;;
33188;SDS011;52601;53.070;10.600;2023-07-13T03:35:11;7.10;;;3.70;;
33188;SDS011;52601;53.070;10.600;2023-07-13T03:37:57;6.22;;;3.50;;
33188;SDS011;52601;53.070;10.600;2023-07-13T03:40:44;4.47;;;3.20;;
33188;SDS011;52601;53.070;10.600;2023-07-13T03:43:29;5.43;;;3.50;;
33188;SDS011;52601;53.070;10.600;2023-07-13T03:46:15;6.53;;;3.50;;
33188;SDS011;52601;53.070;10.600;2023-07-13T03:49:01;7.80;;;3.45;;
33188;SDS011;52601;53.070;10.600;2023-07-13T03:51:48;6.25;;;3.53;;
33188;SDS011;52601;53.070;10.600;2023-07-13T03:54:37;5.80;;;3.23;;
33188;SDS011;52601;53.070;10.600;2023-07-13T03:57:23;5.28;;;3.45;;
33188;SDS011;52601;53.070;10.600;2023-07-13T04:00:08;10.40;;;3.35;;
33188;SDS011;52601;53.070;10.600;2023-07-13T04:02:56;4.90;;;3.40;;
33188;SDS011;52601;53.070;10.600;2023-07-13T04:05:41;6.50;;;3.58;;
33188;SDS011;52601;53.070;10.600;2023-07-13T04:08:27;6.53;;;3.55;;
33188;SDS011;52601;53.070;10.600;2023-07-13T04:11:13;7.03;;;3.50;;
33188;SDS011;52601;53.070;10.600;2023-07-13T04:13:59;6.45;;;3.50;;
33188;SDS011;52601;53.070;10.600;2023-07-13T04:16:45;7.15;;;3.53;;
33188;SDS011;52601;53.070;10.600;2023-07-13T04:19:31;5.05;;;3.65;;
33188;SDS011;52601;53.070;10.600;2023-07-13T04:22:16;6.63;;;3.75;;
33188;SDS011;52601;53.070;10.600;2023-07-13T04:25:02;5.97;;;3.83;;
33188;SDS011;52601;53.070;10.600;2023-07-13T04:27:47;8.07;;;3.70;;
33188;SDS011;52601;53.070;10.600;2023-07-13T04:30:35;7.90;;;3.73;;
33188;SDS011;52601;53.070;10.600;2023-07-13T04:33:20;7.30;;;4.10;;
33188;SDS011;52601;53.070;10.600;2023-07-13T04:36:08;7.87;;;3.90;;
33188;SDS011;52601;53.070;10.600;2023-07-13T04:38:55;8.90;;;4.30;;
33188;SDS011;52601;53.070;10.600;2023-07-13T04:41:40;6.60;;;3.40;;
33188;SDS011;52601;53.070;10.600;2023-07-13T04:44:26;7.45;;;3.40;;
33188;SDS011;52601;53.070;10.600;2023-07-13T04:47:12;8.40;;;3.80;;
33188;SDS011;52601;53.070;10.600;2023-07-13T04:49:58;6.10;;;3.70;;
33188;SDS011;52601;53.070;10.600;2023-07-13T04:52:43;6.55;;;3.38;;
33188;SDS011;52601;53.070;10.600;2023-07-13T04:55:29;5.82;;;3.20;;
33188;SDS011;52601;53.070;10.600;2023-07-13T04:58:15;5.68;;;3.20;;
33188;SDS011;52601;53.070;10.600;2023-07-13T05:01:02;6.95;;;3.50;;
33188;SDS011;52601;53.070;10.600;2023-07-13T05:03:49;5.97;;;3.33;;
33188;SDS011;52601;53.070;10.600;2023-07-13T05:06:35;6.78;;;2.97;;
33188;SDS011;52601;53.070;10.600;2023-07-13T05:09:21;6.07;;;2.72;;
33188;SDS011;52601;53.070;10.600;2023-07-13T05:12:08;6.38;;;2.80;;
33188;SDS011;52601;53.070;10.600;2023-07-13T05:14:55;6.65;;;2.60;;
33188;SDS011;52601;53.070;10.600;2023-07-13T05:17:40;6.57;;;2.70;;
33188;SDS011;52601;53.070;10.600;2023-07-13T05:20:26;5.67;;;2.40;;
33188;SDS011;52601;53.070;10.600;2023-07-13T05:23:11;6.22;;;2.50;;
33188;SDS011;52601;53.070;10.600;2023-07-13T05:25:57;6.93;;;2.40;;
33188;SDS011;52601;53.070;10.600;2023-07-13T05:28:44;7.15;;;2.47;;
33188;SDS011;52601;53.070;10.600;2023-07-13T05:31:29;8.70;;;2.22;;
33188;SDS011;52601;53.070;10.600;2023-07-13T05:34:15;5.25;;;2.35;;
33188;SDS011;52601;53.070;10.600;2023-07-13T05:37:00;5.57;;;2.15;;
33188;SDS011;52601;53.070;10.600;2023-07-13T05:39:46;5.95;;;2.10;;
33188;SDS011;52601;53.070;10.600;2023-07-13T05:42:31;5.78;;;2.33;;
33188;SDS011;52601;53.070;10.600;2023-07-13T05:45:17;5.40;;;2.03;;
33188;SDS011;52601;53.070;10.600;2023-07-13T05:48:03;5.95;;;2.10;;
33188;SDS011;52601;53.070;10.600;2023-07-13T05:50:48;8.00;;;2.47;;
33188;SDS011;52601;53.070;10.600;2023-07-13T05:53:34;7.20;;;2.30;;
33188;SDS011;52601;53.070;10.600;2023-07-13T05:56:21;8.77;;;2.33;;
33188;SDS011;52601;53.070;10.600;2023-07-13T05:59:06;6.95;;;2.30;;
33188;SDS011;52601;53.070;10.600;2023-07-13T06:01:52;6.00;;;2.13;;
33188;SDS011;52601;53.070;10.600;2023-07-13T06:04:38;5.80;;;1.98;;
33188;SDS011;52601;53.070;10.600;2023-07-13T06:07:23;7.97;;;2.00;;
33188;SDS011;52601;53.070;10.600;2023-07-13T06:10:09;4.97;;;1.65;;
33188;SDS011;52601;53.070;10.600;2023-07-13T06:12:54;5.28;;;1.60;;
33188;SDS011;52601;53.070;10.600;2023-07-13T06:15:40;3.85;;;1.50;;
33188;SDS011;52601;53.070;10.600;2023-07-13T06:18:26;5.80;;;2.08;;
33188;SDS011;52601;53.070;10.600;2023-07-13T06:21:13;6.27;;;1.60;;
33188;SDS011;52601;53.070;10.600;2023-07-13T06:24:00;5.18;;;1.75;;
33188;SDS011;52601;53.070;10.600;2023-07-13T06:26:46;7.07;;;1.60;;
33188;SDS011;52601;53.070;10.600;2023-07-13T06:29:32;5.47;;;1.70;;
33188;SDS011;52601;53.070;10.600;2023-07-13T06:32:17;8.85;;;1.98;;
33188;SDS011;52601;53.070;10.600;2023-07-13T06:35:03;4.57;;;1.53;;
33188;SDS011;52601;53.070;10.600;2023-07-13T06:37:49;6.35;;;1.60;;
33188;SDS011;52601;53.070;10.600;2023-07-13T06:40:34;7.78;;;1.67;;
33188;SDS011;52601;53.070;10.600;2023-07-13T06:43:20;6.77;;;1.80;;
33188;SDS011;52601;53.070;10.600;2023-07-13T06:46:06;9.45;;;1.95;;
33188;SDS011;52601;53.070;10.600;2023-07-13T06:48:51;7.05;;;1.67;;
33188;SDS011;52601;53.070;10.600;2023-07-13T06:51:37;5.80;;;1.77;;
33188;SDS011;52601;53.070;10.600;2023-07-13T06:54:22;6.40;;;1.48;;
33188;SDS011;52601;53.070;10.600;2023-07-13T06:57:08;5.00;;;1.27;;
33188;SDS011;52601;53.070;10.600;2023-07-13T06:59:54;4.68;;;1.33;;
33188;SDS011;52601;53.070;10.600;2023-07-13T07:02:39;5.63;;;1.60;;
33188;SDS011;52601;53.070;10.600;2023-07-13T07:05:25;7.05;;;1.20;;
33188;SDS011;52601;53.070;10.600;2023-07-13T07:08:10;6.25;;;1.63;;
33188;SDS011;52601;53.070;10.600;2023-07-13T07:10:56;7.18;;;2.15;;
33188;SDS011;52601;53.070;10.600;2023-07-13T07:13:42;5.75;;;1.35;;
33188;SDS011;52601;53.070;10.600;2023-07-13T07:16:27;5.75;;;1.50;;
33188;SDS011;52601;53.070;10.600;2023-07-13T07:19:13;4.53;;;1.60;;
33188;SDS011;52601;53.070;10.600;2023-07-13T07:21:59;3.42;;;1.20;;
33188;SDS011;52601;53.070;10.600;2023-07-13T07:24:44;3.05;;;1.23;;
33188;SDS011;52601;53.070;10.600;2023-07-13T07:27:30;5.72;;;1.45;;
33188;SDS011;52601;53.070;10.600;2023-07-13T07:30:18;5.03;;;1.27;;
33188;SDS011;52601;53.070;10.600;2023-07-13T07:33:07;4.80;;;1.65;;
33188;SDS011;52601;53.070;10.600;2023-07-13T07:35:52;5.35;;;1.35;;
33188;SDS011;52601;53.070;10.600;2023-07-13T07:38:41;5.38;;;1.38;;
33188;SDS011;52601;53.070;10.600;2023-07-13T07:41:27;6.20;;;1.63;;
33188;SDS011;52601;53.070;10.600;2023-07-13T07:44:15;5.00;;;1.35;;
33188;SDS011;52601;53.070;10.600;2023-07-13T07:47:01;6.20;;;1.60;;
33188;SDS011;52601;53.070;10.600;2023-07-13T07:49:46;5.05;;;1.27;;
33188;SDS011;52601;53.070;10.600;2023-07-13T07:52:32;3.78;;;1.40;;
33188;SDS011;52601;53.070;10.600;2023-07-13T07:55:17;5.43;;;1.30;;
33188;SDS011;52601;53.070;10.600;2023-07-13T07:58:05;4.83;;;1.43;;
33188;SDS011;52601;53.070;10.600;2023-07-13T08:01:11;6.17;;;1.43;;
33188;SDS011;52601;53.070;10.600;2023-07-13T08:04:00;4.68;;;1.08;;
33188;SDS011;52601;53.070;10.600;2023-07-13T08:06:48;3.58;;;1.08;;
33188;SDS011;52601;53.070;10.600;2023-07-13T08:09:34;2.80;;;1.23;;
33188;SDS011;52601;53.070;10.600;2023-07-13T08:12:19;2.77;;;1.10;;
33188;SDS011;52601;53.070;10.600;2023-07-13T08:15:25;3.40;;;1.15;;
33188;SDS011;52601;53.070;10.600;2023-07-13T08:18:11;4.43;;;1.10;;
33188;SDS011;52601;53.070;10.600;2023-07-13T08:20:57;4.57;;;1.42;;
33188;SDS011;52601;53.070;10.600;2023-07-13T08:23:43;3.38;;;1.00;;
33188;SDS011;52601;53.070;10.600;2023-07-13T08:26:29;4.23;;;1.30;;
33188;SDS011;52601;53.070;10.600;2023-07-13T08:29:15;5.63;;;1.60;;
33188;SDS011;52601;53.070;10.600;2023-07-13T08:32:00;8.73;;;1.40;;
33188;SDS011;52601;53.070;10.600;2023-07-13T08:34:46;5.38;;;1.40;;
33188;SDS011;52601;53.070;10.600;2023-07-13T08:37:32;4.53;;;1.07;;
33188;SDS011;52601;53.070;10.600;2023-07-13T08:40:18;4.33;;;1.27;;
33188;SDS011;52601;53.070;10.600;2023-07-13T08:43:09;4.28;;;1.10;;
33188;SDS011;52601;53.070;10.600;2023-07-13T08:46:15;3.35;;;1.30;;
33188;SDS011;52601;53.070;10.600;2023-07-13T08:49:21;6.25;;;1.30;;
33188;SDS011;52601;53.070;10.600;2023-07-13T08:52:11;6.63;;;1.33;;
33188;SDS011;52601;53.070;10.600;2023-07-13T08:58:12;3.75;;;1.10;;
33188;SDS011;52601;53.070;10.600;2023-07-13T09:01:05;5.53;;;1.42;;
33188;SDS011;52601;53.070;10.600;2023-07-13T09:04:12;5.68;;;1.25;;
33188;SDS011;52601;53.070;10.600;2023-07-13T09:07:05;4.72;;;1.30;;
33188;SDS011;52601;53.070;10.600;2023-07-13T09:10:08;3.30;;;1.20;;
33188;SDS011;52601;53.070;10.600;2023-07-13T09:16:13;5.93;;;1.23;;
33188;SDS011;52601;53.070;10.600;2023-07-13T09:18:59;5.57;;;1.35;;
33188;SDS011;52601;53.070;10.600;2023-07-13T09:21:49;6.20;;;1.27;;
33188;SDS011;52601;53.070;10.600;2023-07-13T09:24:39;4.03;;;1.33;;
33188;SDS011;52601;53.070;10.600;2023-07-13T09:27:38;4.10;;;1.15;;
33188;SDS011;52601;53.070;10.600;2023-07-13T09:30:30;6.55;;;1.40;;
33188;SDS011;52601;53.070;10.600;2023-07-13T09:33:23;4.10;;;1.23;;
33188;SDS011;52601;53.070;10.600;2023-07-13T09:36:16;5.97;;;1.40;;
33188;SDS011;52601;53.070;10.600;2023-07-13T09:39:10;5.35;;;1.20;;
33188;SDS011;52601;53.070;10.600;2023-07-13T09:45:05;6.50;;;1.30;;
33188;SDS011;52601;53.070;10.600;2023-07-13T09:48:05;5.53;;;1.50;;
33188;SDS011;52601;53.070;10.600;2023-07-13T09:50:57;5.22;;;1.20;;
33188;SDS011;52601;53.070;10.600;2023-07-13T09:54:02;4.28;;;1.50;;
33188;SDS011;52601;53.070;10.600;2023-07-13T09:56:48;4.33;;;1.27;;
33188;SDS011;52601;53.070;10.600;2023-07-13T09:59:41;3.50;;;1.20;;
33188;SDS011;52601;53.070;10.600;2023-07-13T10:02:32;4.50;;;1.35;;
33188;SDS011;52601;53.070;10.600;2023-07-13T10:05:20;4.60;;;1.40;;
33188;SDS011;52601;53.070;10.600;2023-07-13T10:08:26;3.38;;;1.30;;
33188;SDS011;52601;53.070;10.600;2023-07-13T10:11:18;2.50;;;1.02;;
33188;SDS011;52601;53.070;10.600;2023-07-13T10:14:25;4.20;;;1.42;;
33188;SDS011;52601;53.070;10.600;2023-07-13T10:17:12;2.67;;;1.10;;
33188;SDS011;52601;53.070;10.600;2023-07-13T10:19:59;4.03;;;1.13;;
33188;SDS011;52601;53.070;10.600;2023-07-13T10:22:50;3.97;;;1.20;;
33188;SDS011;52601;53.070;10.600;2023-07-13T10:25:42;4.63;;;1.48;;
33188;SDS011;52601;53.070;10.600;2023-07-13T10:28:32;5.30;;;1.30;;
33188;SDS011;52601;53.070;10.600;2023-07-13T10:31:22;4.07;;;1.30;;
33188;SDS011;52601;53.070;10.600;2023-07-13T10:34:09;5.22;;;1.27;;
33188;SDS011;52601;53.070;10.600;2023-07-13T10:36:57;2.35;;;0.90;;
33188;SDS011;52601;53.070;10.600;2023-07-13T10:39:44;4.30;;;1.42;;
33188;SDS011;52601;53.070;10.600;2023-07-13T10:42:32;3.53;;;1.23;;
33188;SDS011;52601;53.070;10.600;2023-07-13T10:45:23;2.40;;;1.00;;
33188;SDS011;52601;53.070;10.600;2023-07-13T10:48:11;4.25;;;1.17;;
33188;SDS011;52601;53.070;10.600;2023-07-13T10:51:01;4.25;;;1.13;;
33188;SDS011;52601;53.070;10.600;2023-07-13T10:54:10;3.05;;;1.20;;
33188;SDS011;52601;53.070;10.600;2023-07-13T10:57:16;3.58;;;1.13;;
33188;SDS011;52601;53.070;10.600;2023-07-13T11:00:15;3.97;;;1.10;;
33188;SDS011;52601;53.070;10.600;2023-07-13T11:03:03;7.30;;;1.52;;
33188;SDS011;52601;53.070;10.600;2023-07-13T11:05:50;2.88;;;0.93;;
33188;SDS011;52601;53.070;10.600;2023-07-13T11:08:53;2.83;;;0.95;;
33188;SDS011;52601;53.070;10.600;2023-07-13T11:11:44;3.57;;;1.17;;
33188;SDS011;52601;53.070;10.600;2023-07-13T11:14:38;3.00;;;1.10;;
33188;SDS011;52601;53.070;10.600;2023-07-13T11:20:23;2.63;;;1.10;;
33188;SDS011;52601;53.070;10.600;2023-07-13T11:23:18;6.32;;;1.45;;
33188;SDS011;52601;53.070;10.600;2023-07-13T11:29:42;5.22;;;1.45;;
33188;SDS011;52601;53.070;10.600;2023-07-13T11:32:31;3.43;;;1.23;;
33188;SDS011;52601;53.070;10.600;2023-07-13T11:35:21;7.00;;;1.50;;
33188;SDS011;52601;53.070;10.600;2023-07-13T11:38:45;5.00;;;1.30;;
33188;SDS011;52601;53.070;10.600;2023-07-13T11:41:31;5.33;;;1.30;;
33188;SDS011;52601;53.070;10.600;2023-07-13T11:44:24;4.43;;;1.30;;
33188;SDS011;52601;53.070;10.600;2023-07-13T11:47:11;3.83;;;1.20;;
33188;SDS011;52601;53.070;10.600;2023-07-13T11:50:04;3.40;;;1.27;;
33188;SDS011;52601;53.070;10.600;2023-07-13T11:52:52;3.97;;;0.90;;
33188;SDS011;52601;53.070;10.600;2023-07-13T11:55:39;2.30;;;1.05;;
33188;SDS011;52601;53.070;10.600;2023-07-13T11:58:25;3.28;;;1.40;;
33188;SDS011;52601;53.070;10.600;2023-07-13T12:01:16;2.63;;;1.17;;
33188;SDS011;52601;53.070;10.600;2023-07-13T12:04:08;2.73;;;1.10;;
33188;SDS011;52601;53.070;10.600;2023-07-13T12:07:07;3.42;;;1.38;;
33188;SDS011;52601;53.070;10.600;2023-07-13T12:10:02;3.80;;;1.25;;
33188;SDS011;52601;53.070;10.600;2023-07-13T12:12:56;2.88;;;1.20;;
33188;SDS011;52601;53.070;10.600;2023-07-13T12:15:43;5.07;;;1.60;;
33188;SDS011;52601;53.070;10.600;2023-07-13T12:18:31;3.83;;;1.23;;
33188;SDS011;52601;53.070;10.600;2023-07-13T12:21:19;14.57;;;2.47;;
33188;SDS011;52601;53.070;10.600;2023-07-13T12:24:16;5.63;;;1.40;;
33188;SDS011;52601;53.070;10.600;2023-07-13T12:27:04;11.13;;;1.98;;
33188;SDS011;52601;53.070;10.600;2023-07-13T12:29:51;4.90;;;1.10;;
33188;SDS011;52601;53.070;10.600;2023-07-13T12:32:42;2.38;;;1.30;;
33188;SDS011;52601;53.070;10.600;2023-07-13T12:35:29;2.85;;;1.20;;
33188;SDS011;52601;53.070;10.600;2023-07-13T12:38:16;3.67;;;1.30;;
33188;SDS011;52601;53.070;10.600;2023-07-13T12:41:02;2.47;;;1.15;;
33188;SDS011;52601;53.070;10.600;2023-07-13T12:43:48;4.20;;;1.17;;
33188;SDS011;52601;53.070;10.600;2023-07-13T12:46:34;2.70;;;1.20;;
33188;SDS011;52601;53.070;10.600;2023-07-13T12:49:22;3.22;;;0.90;;
33188;SDS011;52601;53.070;10.600;2023-07-13T12:52:12;3.40;;;1.17;;
33188;SDS011;52601;53.070;10.600;2023-07-13T12:57:59;2.23;;;1.10;;
33188;SDS011;52601;53.070;10.600;2023-07-13T13:00:50;3.03;;;1.13;;
33188;SDS011;52601;53.070;10.600;2023-07-13T13:03:40;4.03;;;1.40;;
33188;SDS011;52601;53.070;10.600;2023-07-13T13:06:32;5.82;;;1.33;;
33188;SDS011;52601;53.070;10.600;2023-07-13T13:09:18;2.30;;;1.08;;
33188;SDS011;52601;53.070;10.600;2023-07-13T13:12:05;5.35;;;1.33;;
33188;SDS011;52601;53.070;10.600;2023-07-13T13:14:51;16.13;;;2.38;;
33188;SDS011;52601;53.070;10.600;2023-07-13T13:17:38;17.42;;;2.03;;
33188;SDS011;52601;53.070;10.600;2023-07-13T13:20:24;8.57;;;1.00;;
33188;SDS011;52601;53.070;10.600;2023-07-13T13:23:14;5.23;;;1.00;;
33188;SDS011;52601;53.070;10.600;2023-07-13T13:26:03;5.85;;;0.90;;
33188;SDS011;52601;53.070;10.600;2023-07-13T13:28:53;20.63;;;1.92;;
33188;SDS011;52601;53.070;10.600;2023-07-13T13:31:39;8.43;;;0.80;;
33188;SDS011;52601;53.070;10.600;2023-07-13T13:34:25;2.88;;;0.90;;
33188;SDS011;52601;53.070;10.600;2023-07-13T13:37:19;2.47;;;1.10;;
33188;SDS011;52601;53.070;10.600;2023-07-13T13:40:18;2.90;;;1.10;;
33188;SDS011;52601;53.070;10.600;2023-07-13T13:43:13;3.13;;;1.20;;
33188;SDS011;52601;53.070;10.600;2023-07-13T13:46:08;1.60;;;1.10;;
33188;SDS011;52601;53.070;10.600;2023-07-13T13:49:02;2.17;;;1.00;;
33188;SDS011;52601;53.070;10.600;2023-07-13T13:51:48;2.85;;;1.00;;
33188;SDS011;52601;53.070;10.600;2023-07-13T13:54:33;2.75;;;1.17;;
33188;SDS011;52601;53.070;10.600;2023-07-13T13:57:19;1.73;;;1.02;;
33188;SDS011;52601;53.070;10.600;2023-07-13T14:00:05;1.88;;;1.00;;
33188;SDS011;52601;53.070;10.600;2023-07-13T14:02:51;1.60;;;1.10;;
33188;SDS011;52601;53.070;10.600;2023-07-13T14:05:38;2.50;;;1.00;;
33188;SDS011;52601;53.070;10.600;2023-07-13T14:08:25;1.50;;;1.00;;
33188;SDS011;52601;53.070;10.600;2023-07-13T14:11:12;4.05;;;1.23;;
33188;SDS011;52601;53.070;10.600;2023-07-13T14:13:59;3.00;;;1.10;;
33188;SDS011;52601;53.070;10.600;2023-07-13T14:16:46;1.93;;;1.10;;
33188;SDS011;52601;53.070;10.600;2023-07-13T14:19:38;4.38;;;1.50;;
33188;SDS011;52601;53.070;10.600;2023-07-13T14:22:24;2.50;;;1.30;;
33188;SDS011;52601;53.070;10.600;2023-07-13T14:25:11;1.80;;;0.90;;
33188;SDS011;52601;53.070;10.600;2023-07-13T14:27:58;1.80;;;1.13;;
33188;SDS011;52601;53.070;10.600;2023-07-13T14:30:45;2.15;;;1.20;;
33188;SDS011;52601;53.070;10.600;2023-07-13T14:33:32;1.83;;;1.10;;
33188;SDS011;52601;53.070;10.600;2023-07-13T14:36:23;1.63;;;1.00;;
33188;SDS011;52601;53.070;10.600;2023-07-13T14:39:19;1.98;;;0.80;;
33188;SDS011;52601;53.070;10.600;2023-07-13T14:42:09;1.55;;;0.90;;
33188;SDS011;52601;53.070;10.600;2023-07-13T14:44:55;2.25;;;0.93;;
33188;SDS011;52601;53.070;10.600;2023-07-13T14:47:40;2.38;;;1.10;;
33188;SDS011;52601;53.070;10.600;2023-07-13T14:50:30;1.52;;;0.98;;
33188;SDS011;52601;53.070;10.600;2023-07-13T14:53:18;1.88;;;0.93;;
33188;SDS011;52601;53.070;10.600;2023-07-13T14:56:08;2.10;;;0.90;;
33188;SDS011;52601;53.070;10.600;2023-07-13T14:58:57;1.75;;;1.05;;
33188;SDS011;52601;53.070;10.600;2023-07-13T15:01:42;1.40;;;0.93;;
33188;SDS011;52601;53.070;10.600;2023-07-13T15:04:29;2.20;;;1.02;;
33188;SDS011;52601;53.070;10.600;2023-07-13T15:07:14;2.88;;;1.10;;
33188;SDS011;52601;53.070;10.600;2023-07-13T15:10:04;1.58;;;0.90;;
33188;SDS011;52601;53.070;10.600;2023-07-13T15:13:01;1.73;;;0.88;;
33188;SDS011;52601;53.070;10.600;2023-07-13T15:16:04;1.65;;;1.08;;
33188;SDS011;52601;53.070;10.600;2023-07-13T15:18:55;3.92;;;1.20;;
33188;SDS011;52601;53.070;10.600;2023-07-13T15:21:41;2.75;;;1.10;;
33188;SDS011;52601;53.070;10.600;2023-07-13T15:24:29;2.38;;;1.00;;
33188;SDS011;52601;53.070;10.600;2023-07-13T15:27:14;1.30;;;0.70;;
33188;SDS011;52601;53.070;10.600;2023-07-13T15:30:02;2.00;;;0.90;;
33188;SDS011;52601;53.070;10.600;2023-07-13T15:32:47;3.90;;;0.90;;
33188;SDS011;52601;53.070;10.600;2023-07-13T15:35:34;1.20;;;0.75;;
33188;SDS011;52601;53.070;10.600;2023-07-13T15:38:20;2.00;;;0.80;;
33188;SDS011;52601;53.070;10.600;2023-07-13T15:41:26;1.75;;;0.85;;
33188;SDS011;52601;53.070;10.600;2023-07-13T15:44:26;0.88;;;0.70;;
33188;SDS011;52601;53.070;10.600;2023-07-13T15:47:14;1.05;;;0.70;;
33188;SDS011;52601;53.070;10.600;2023-07-13T15:50:00;1.20;;;0.80;;
33188;SDS011;52601;53.070;10.600;2023-07-13T15:52:50;1.63;;;0.80;;
33188;SDS011;52601;53.070;10.600;2023-07-13T15:55:38;2.05;;;0.77;;
33188;SDS011;52601;53.070;10.600;2023-07-13T15:58:26;0.80;;;0.60;;
33188;SDS011;52601;53.070;10.600;2023-07-13T16:01:13;0.98;;;0.80;;
33188;SDS011;52601;53.070;10.600;2023-07-13T16:04:00;0.93;;;0.60;;
33188;SDS011;52601;53.070;10.600;2023-07-13T16:06:45;0.75;;;0.43;;
33188;SDS011;52601;53.070;10.600;2023-07-13T16:09:32;3.15;;;0.77;;
33188;SDS011;52601;53.070;10.600;2023-07-13T16:12:17;2.17;;;0.90;;
33188;SDS011;52601;53.070;10.600;2023-07-13T16:15:03;1.35;;;0.80;;
33188;SDS011;52601;53.070;10.600;2023-07-13T16:17:50;2.45;;;0.85;;
33188;SDS011;52601;53.070;10.600;2023-07-13T16:20:37;1.35;;;0.70;;
33188;SDS011;52601;53.070;10.600;2023-07-13T16:23:35;1.55;;;0.70;;
33188;SDS011;52601;53.070;10.600;2023-07-13T16:26:38;0.77;;;0.70;;
33188;SDS011;52601;53.070;10.600;2023-07-13T16:29:30;1.05;;;0.60;;
33188;SDS011;52601;53.070;10.600;2023-07-13T16:32:16;1.02;;;0.60;;
33188;SDS011;52601;53.070;10.600;2023-07-13T16:35:02;1.25;;;0.50;;
33188;SDS011;52601;53.070;10.600;2023-07-13T16:37:47;1.40;;;0.70;;
33188;SDS011;52601;53.070;10.600;2023-07-13T16:40:47;1.02;;;0.70;;
33188;SDS011;52601;53.070;10.600;2023-07-13T16:43:33;1.07;;;0.67;;
33188;SDS011;52601;53.070;10.600;2023-07-13T16:46:21;1.05;;;0.70;;
33188;SDS011;52601;53.070;10.600;2023-07-13T16:49:20;1.27;;;0.80;;
33188;SDS011;52601;53.070;10.600;2023-07-13T16:52:11;1.55;;;0.70;;
33188;SDS011;52601;53.070;10.600;2023-07-13T16:54:58;1.48;;;0.60;;
33188;SDS011;52601;53.070;10.600;2023-07-13T16:57:45;1.17;;;0.55;;
33188;SDS011;52601;53.070;10.600;2023-07-13T17:00:32;1.35;;;0.70;;